Hoytville, Pennsylvania
Current Conditions -  °F | °C
As of 12:35 PM on Wednesday 26 Nov 2014 (Local Time) from KN38 Reporting Station
Light Snow Light Snow  
Wind Chill: 22°   Ceiling: 500
Heat Index: 28°   Visibility: 0.5mi
Dew Point: 27°   Wind: 6mph
Humidity: 93%   Direction: 30°NNE
Pressure: 30.03"   Gusts: NA
Location:  41.533°N, 77.3132°W
Report Text: KN38 261735Z AUTO 03005KT 1/2SM -SN OVC005 M02/M03 A3003 RMK AO2
Loading
Personal Weather Stations






























Interactive Weather Map New forecast layout! Learn more

10-Day Weather Forecast

Advertisements
Track Severe Weather on mobile